createdAt,value
2022-11-09T00:00:07.669Z,11.50
2022-11-09T00:02:55.838Z,13.53
2022-11-09T00:05:22.432Z,9.48
2022-11-09T00:07:49.320Z,14.60
2022-11-09T00:10:16.009Z,19.75
2022-11-09T00:12:42.876Z,16.17
2022-11-09T00:15:10.073Z,10.53
2022-11-09T00:17:36.911Z,13.68
2022-11-09T00:20:04.353Z,13.48
2022-11-09T00:22:31.258Z,14.73
2022-11-09T00:24:57.878Z,12.82
2022-11-09T00:27:24.875Z,11.93
2022-11-09T00:29:51.482Z,13.57
2022-11-09T00:32:18.976Z,12.93
2022-11-09T00:34:45.648Z,12.73
2022-11-09T00:37:12.602Z,14.10
2022-11-09T00:39:39.235Z,16.63
2022-11-09T00:42:07.359Z,15.38
2022-11-09T00:44:33.967Z,13.13
2022-11-09T00:47:00.987Z,18.55
2022-11-09T00:49:27.586Z,16.75
2022-11-09T00:51:54.704Z,16.83
2022-11-09T00:54:21.357Z,20.00
2022-11-09T00:56:48.438Z,18.20
2022-11-09T00:59:15.107Z,14.60
2022-11-09T01:01:42.097Z,16.60
2022-11-09T01:04:08.802Z,11.23
2022-11-09T01:06:35.742Z,11.13
2022-11-09T01:09:02.833Z,14.50
2022-11-09T01:11:29.797Z,16.75
2022-11-09T01:13:58.916Z,22.15
2022-11-09T01:16:26.297Z,16.83
2022-11-09T01:18:55.037Z,20.55
2022-11-09T01:21:25.288Z,19.15
2022-11-09T01:23:52.124Z,17.65
2022-11-09T01:26:19.320Z,22.83
2022-11-09T01:28:45.950Z,20.67
2022-11-09T01:31:18.609Z,20.98
2022-11-09T01:33:45.457Z,19.70
2022-11-09T01:36:15.197Z,22.08
2022-11-09T01:38:42.172Z,22.17
2022-11-09T01:41:16.323Z,20.40
2022-11-09T01:43:43.238Z,14.98
2022-11-09T01:46:22.322Z,13.55
2022-11-09T01:48:56.818Z,10.68
2022-11-09T01:51:32.543Z,10.63
2022-11-09T01:54:08.421Z,9.23
2022-11-09T01:56:35.710Z,9.65
2022-11-09T01:59:08.105Z,10.60
2022-11-09T02:01:35.694Z,11.68
2022-11-09T02:04:25.456Z,17.70
2022-11-09T02:06:55.016Z,13.00
2022-11-09T02:09:40.817Z,16.90
2022-11-09T02:12:08.112Z,16.60
2022-11-09T02:14:37.201Z,16.20
2022-11-09T02:17:04.598Z,18.83
2022-11-09T02:19:31.230Z,17.67
2022-11-09T02:21:58.136Z,14.93
2022-11-09T02:24:25.124Z,12.07
2022-11-09T02:26:52.748Z,12.50
2022-11-09T02:29:35.448Z,12.13
2022-11-09T02:32:08.591Z,10.90
2022-11-09T02:34:36.881Z,10.73
2022-11-09T02:37:03.811Z,16.20
2022-11-09T02:39:31.973Z,16.20
2022-11-09T02:42:10.220Z,16.13
2022-11-09T02:44:43.683Z,12.60
2022-11-09T02:47:10.322Z,18.33
2022-11-09T02:49:37.341Z,18.67
2022-11-09T02:52:04.318Z,18.15
2022-11-09T02:54:31.318Z,18.83
2022-11-09T02:56:58.880Z,16.07
2022-11-09T02:59:26.691Z,15.45
2022-11-09T03:01:53.405Z,16.75
2022-11-09T03:04:21.412Z,15.68
2022-11-09T03:06:48.196Z,10.95
2022-11-09T03:09:18.140Z,18.07
2022-11-09T03:11:45.426Z,17.70
2022-11-09T03:14:14.695Z,14.30
2022-11-09T03:16:50.446Z,14.52
2022-11-09T03:19:17.517Z,11.77
2022-11-09T03:21:46.284Z,12.37
2022-11-09T03:24:13.157Z,18.63
2022-11-09T03:26:40.923Z,13.65
2022-11-09T03:29:07.873Z,10.48
2022-11-09T03:31:35.417Z,14.52
2022-11-09T03:34:05.728Z,16.13
2022-11-09T03:36:35.313Z,14.60
2022-11-09T03:39:02.229Z,14.75
2022-11-09T03:41:29.184Z,15.13
2022-11-09T03:43:56.073Z,14.55
2022-11-09T03:46:22.726Z,14.60
2022-11-09T03:48:49.618Z,16.15
2022-11-09T03:51:16.269Z,11.35
2022-11-09T03:53:43.116Z,10.40
2022-11-09T03:56:09.934Z,11.07
2022-11-09T03:58:36.804Z,11.60
2022-11-09T04:01:03.564Z,10.38
2022-11-09T04:03:30.466Z,12.95
2022-11-09T04:06:00.280Z,11.30
2022-11-09T04:08:27.170Z,9.40
2022-11-09T04:10:53.803Z,9.37
2022-11-09T04:13:20.942Z,10.98
2022-11-09T04:15:47.793Z,12.38
2022-11-09T04:18:16.456Z,10.10
2022-11-09T04:20:43.280Z,9.95
2022-11-09T04:23:12.756Z,10.27
2022-11-09T04:25:40.850Z,10.38
2022-11-09T04:28:11.591Z,11.43
2022-11-09T04:30:38.372Z,9.82
2022-11-09T04:33:05.385Z,8.35
2022-11-09T04:35:33.807Z,6.53
2022-11-09T04:38:06.328Z,8.63
2022-11-09T04:40:34.937Z,7.68
2022-11-09T04:43:06.778Z,7.80
2022-11-09T04:45:34.693Z,7.35
2022-11-09T04:48:04.030Z,9.63
2022-11-09T04:50:31.257Z,8.02
2022-11-09T04:53:27.625Z,8.52
2022-11-09T04:55:54.554Z,9.27
2022-11-09T04:58:24.922Z,8.23
2022-11-09T05:00:52.143Z,11.00
2022-11-09T05:03:19.889Z,11.43
2022-11-09T05:05:48.491Z,14.68
2022-11-09T05:08:15.693Z,14.15
2022-11-09T05:10:42.312Z,12.23
2022-11-09T05:13:11.606Z,15.60
2022-11-09T05:15:38.523Z,13.05
2022-11-09T05:18:06.208Z,9.75
2022-11-09T05:20:33.310Z,10.82
2022-11-09T05:23:19.822Z,11.82
2022-11-09T05:25:47.384Z,9.07
2022-11-09T05:28:14.408Z,9.90
2022-11-09T05:30:41.052Z,17.27
2022-11-09T05:33:07.913Z,17.55
2022-11-09T05:35:34.605Z,14.25
2022-11-09T05:38:01.746Z,16.00
2022-11-09T05:40:28.389Z,12.25
2022-11-09T05:42:56.608Z,10.63
2022-11-09T05:45:42.028Z,9.90
2022-11-09T05:48:11.831Z,11.52
2022-11-09T05:50:39.162Z,14.10
2022-11-09T05:53:17.987Z,17.60
2022-11-09T05:55:44.837Z,14.85
2022-11-09T05:58:11.765Z,15.00
2022-11-09T06:00:38.460Z,15.98
2022-11-09T06:03:07.462Z,17.67
2022-11-09T06:05:38.327Z,18.65
2022-11-09T06:08:07.153Z,19.75
2022-11-09T06:10:34.545Z,16.85
2022-11-09T06:13:01.561Z,17.80
2022-11-09T06:15:28.354Z,15.50
2022-11-09T06:17:56.733Z,16.52
2022-11-09T06:20:24.204Z,14.43
2022-11-09T06:23:03.050Z,13.30
2022-11-09T06:25:32.199Z,20.13
2022-11-09T06:27:59.339Z,20.73
2022-11-09T06:30:26.248Z,20.42
2022-11-09T06:33:03.353Z,20.75
2022-11-09T06:35:30.222Z,16.23
2022-11-09T06:37:58.778Z,15.43
2022-11-09T06:40:26.108Z,14.93
2022-11-09T06:42:55.838Z,17.65
2022-11-09T06:45:22.453Z,16.75
2022-11-09T06:47:49.304Z,14.77
2022-11-09T06:50:15.970Z,15.02
2022-11-09T06:52:42.821Z,20.27
2022-11-09T06:55:09.751Z,14.30
2022-11-09T06:57:37.002Z,20.20
2022-11-09T07:00:05.186Z,15.00
2022-11-09T07:02:32.970Z,18.13
2022-11-09T07:04:59.538Z,15.97
2022-11-09T07:07:28.245Z,15.35
2022-11-09T07:09:55.876Z,14.05
2022-11-09T07:12:23.046Z,13.65
2022-11-09T07:14:49.822Z,14.40
2022-11-09T07:17:16.733Z,17.60
2022-11-09T07:19:43.445Z,17.48
2022-11-09T07:22:10.332Z,14.13
2022-11-09T07:24:36.952Z,13.20
2022-11-09T07:27:03.915Z,14.65
2022-11-09T07:29:30.542Z,15.20
2022-11-09T07:31:57.392Z,11.48
2022-11-09T07:34:24.063Z,17.17
2022-11-09T07:36:53.839Z,17.45
2022-11-09T07:39:20.540Z,16.95
2022-11-09T07:41:48.567Z,13.90
2022-11-09T07:44:18.297Z,15.48
2022-11-09T07:46:48.928Z,16.70
2022-11-09T07:49:17.056Z,16.60
2022-11-09T07:51:44.074Z,16.88
2022-11-09T07:54:11.594Z,19.40
2022-11-09T07:56:38.466Z,22.35
2022-11-09T07:59:05.598Z,21.67
2022-11-09T08:01:32.525Z,22.83
2022-11-09T08:03:59.181Z,35.10
2022-11-09T08:06:28.098Z,36.20
2022-11-09T08:08:55.564Z,32.08
2022-11-09T08:11:22.454Z,35.08
2022-11-09T08:13:49.182Z,18.50
2022-11-09T08:16:16.564Z,13.20
2022-11-09T08:18:43.273Z,16.07
2022-11-09T08:21:10.233Z,20.63
2022-11-09T08:23:36.878Z,19.63
2022-11-09T08:26:06.433Z,20.83
2022-11-09T08:28:34.360Z,17.40
2022-11-09T08:31:04.847Z,19.97
2022-11-09T08:33:36.174Z,16.63
2022-11-09T08:36:09.827Z,15.00
2022-11-09T08:38:36.684Z,16.45
2022-11-09T08:41:03.758Z,17.05
2022-11-09T08:43:30.522Z,20.07
2022-11-09T08:45:57.404Z,20.33
2022-11-09T08:48:24.104Z,15.50
2022-11-09T08:50:57.022Z,16.05
2022-11-09T08:53:25.525Z,14.02
2022-11-09T08:55:52.782Z,14.07
2022-11-09T08:58:20.958Z,15.60
2022-11-09T09:00:48.176Z,15.95
2022-11-09T09:03:14.803Z,17.70
2022-11-09T09:05:41.692Z,15.55
2022-11-09T09:08:11.013Z,14.07
2022-11-09T09:10:38.097Z,10.63
2022-11-09T09:13:04.797Z,12.30
2022-11-09T09:15:32.021Z,10.73
2022-11-09T09:18:03.031Z,11.57
2022-11-09T09:20:30.029Z,13.50
2022-11-09T09:23:00.447Z,11.93
2022-11-09T09:25:27.817Z,11.00
2022-11-09T09:27:54.543Z,10.82
2022-11-09T09:30:21.434Z,11.07
2022-11-09T09:32:48.689Z,12.17
2022-11-09T09:35:15.870Z,11.88
2022-11-09T09:37:44.178Z,11.15
2022-11-09T09:40:24.276Z,13.88
2022-11-09T09:42:54.290Z,9.85
2022-11-09T09:45:26.073Z,9.23
2022-11-09T09:47:55.790Z,9.45
2022-11-09T09:50:37.744Z,10.18
2022-11-09T09:53:24.139Z,10.38
2022-11-09T09:56:05.658Z,14.45
2022-11-09T09:58:42.092Z,24.70
2022-11-09T10:01:16.418Z,20.40
2022-11-09T10:03:43.200Z,17.45
2022-11-09T10:06:25.841Z,19.02
2022-11-09T10:09:18.331Z,12.18
2022-11-09T10:11:51.193Z,12.33
2022-11-09T10:14:35.337Z,11.82
2022-11-09T10:17:20.922Z,9.50
2022-11-09T10:20:08.878Z,17.80
2022-11-09T10:22:56.610Z,35.50
2022-11-09T10:28:17.543Z,56.83
2022-11-09T10:30:44.515Z,48.15
2022-11-09T10:33:11.339Z,56.20
2022-11-09T10:35:45.105Z,48.53
2022-11-09T10:38:27.968Z,24.23
2022-11-09T10:41:23.694Z,37.97
2022-11-09T10:44:18.147Z,28.63
2022-11-09T10:47:06.638Z,23.15
2022-11-09T10:50:14.200Z,22.38
2022-11-09T10:53:25.185Z,13.37
2022-11-09T10:56:21.132Z,12.27
2022-11-09T10:59:34.113Z,8.45
2022-11-09T11:02:40.313Z,8.15
2022-11-09T11:05:28.402Z,9.13
2022-11-09T11:08:30.778Z,8.10
2022-11-09T11:11:36.032Z,7.93
2022-11-09T11:14:41.950Z,8.68
2022-11-09T11:17:29.691Z,12.32
2022-11-09T11:20:37.396Z,16.08
2022-11-09T11:23:25.583Z,26.30
2022-11-09T11:26:23.150Z,64.25
2022-11-09T11:29:14.706Z,21.20
2022-11-09T11:32:00.493Z,9.60
2022-11-09T11:34:59.584Z,8.75
2022-11-09T11:38:15.202Z,7.47
2022-11-09T11:41:37.562Z,8.02
2022-11-09T11:44:47.884Z,16.98
2022-11-09T11:47:58.167Z,12.48
2022-11-09T11:51:08.886Z,14.40
2022-11-09T11:54:03.394Z,14.67
2022-11-09T11:56:59.191Z,15.43
2022-11-09T12:00:00.294Z,14.15
2022-11-09T12:03:16.088Z,11.27
2022-11-09T12:06:12.930Z,10.20
2022-11-09T12:09:35.957Z,21.77
2022-11-09T12:12:43.056Z,10.07
2022-11-09T12:15:47.268Z,7.82
2022-11-09T12:19:10.142Z,8.30
2022-11-09T12:22:12.080Z,7.70
2022-11-09T12:25:03.803Z,7.13
2022-11-09T12:28:18.296Z,8.23
2022-11-09T12:31:17.746Z,8.10
2022-11-09T12:34:15.106Z,7.55
2022-11-09T12:37:09.874Z,7.15
2022-11-09T12:40:06.614Z,6.03
2022-11-09T12:42:55.868Z,6.20
2022-11-09T12:45:41.903Z,7.18
2022-11-09T12:48:30.952Z,9.82
2022-11-09T12:51:17.281Z,8.38
2022-11-09T12:54:11.197Z,8.47
2022-11-09T12:57:00.705Z,7.00
2022-11-09T12:59:48.419Z,6.78
2022-11-09T13:02:37.957Z,7.90
2022-11-09T13:05:35.370Z,10.48
2022-11-09T13:08:29.350Z,7.97
2022-11-09T13:11:17.448Z,9.57
2022-11-09T13:14:21.595Z,7.68
2022-11-09T13:17:24.858Z,10.15
2022-11-09T13:24:01.186Z,16.13
2022-11-09T13:26:46.418Z,9.48
2022-11-09T13:29:40.570Z,12.60
2022-11-09T13:32:31.446Z,17.98
2022-11-09T13:35:41.536Z,15.85
2022-11-09T13:38:29.413Z,9.00
2022-11-09T13:41:43.971Z,9.40
2022-11-09T13:44:34.170Z,10.25
2022-11-09T13:47:27.773Z,7.65
2022-11-09T13:50:25.607Z,9.05
2022-11-09T13:53:30.796Z,9.83
2022-11-09T13:56:27.595Z,9.18
2022-11-09T13:59:30.060Z,7.82
2022-11-09T14:02:23.914Z,8.65
2022-11-09T14:05:27.637Z,19.45
2022-11-09T14:08:41.024Z,14.23
2022-11-09T14:11:54.030Z,12.23
2022-11-09T14:15:12.916Z,13.45
2022-11-09T14:18:03.090Z,9.68
2022-11-09T14:21:04.775Z,9.13
2022-11-09T14:23:51.113Z,13.70
2022-11-09T14:26:36.678Z,15.38
2022-11-09T14:29:23.694Z,13.15
2022-11-09T14:32:27.366Z,14.98
2022-11-09T14:35:23.379Z,13.88
2022-11-09T14:38:21.496Z,12.23
2022-11-09T14:41:19.113Z,14.70
2022-11-09T14:44:05.461Z,8.95
2022-11-09T14:46:56.180Z,11.98
2022-11-09T14:49:41.746Z,10.90
2022-11-09T14:52:29.806Z,25.63
2022-11-09T14:55:16.992Z,16.45
2022-11-09T14:58:02.729Z,17.90
2022-11-09T15:01:07.190Z,15.57
2022-11-09T15:04:20.121Z,20.88
2022-11-09T15:07:06.205Z,19.03
2022-11-09T15:10:01.477Z,20.05
2022-11-09T15:12:51.086Z,21.00
2022-11-09T15:15:38.372Z,20.75
2022-11-09T15:18:33.404Z,18.02
2022-11-09T15:21:33.748Z,19.80
2022-11-09T15:24:21.299Z,18.48
2022-11-09T15:27:28.275Z,15.45
2022-11-09T15:30:54.959Z,19.50
2022-11-09T15:33:48.029Z,24.35
2022-11-09T15:36:35.786Z,25.77
2022-11-09T15:39:22.680Z,14.20
2022-11-09T15:42:11.826Z,17.10
2022-11-09T15:44:58.914Z,15.20
2022-11-09T15:47:54.800Z,13.50
2022-11-09T15:50:40.933Z,14.20
2022-11-09T15:53:27.550Z,12.70
2022-11-09T15:56:19.553Z,14.07
2022-11-09T15:59:06.236Z,16.67
2022-11-09T16:01:51.779Z,13.52
2022-11-09T16:04:37.030Z,13.47
2022-11-09T16:07:22.062Z,19.30
2022-11-09T16:10:13.668Z,16.60
2022-11-09T16:12:58.738Z,13.10
2022-11-09T16:15:44.073Z,18.67
2022-11-09T16:18:29.480Z,19.13
2022-11-09T16:21:16.811Z,22.45
2022-11-09T16:24:01.880Z,21.85
2022-11-09T16:26:47.850Z,23.95
2022-11-09T16:29:33.766Z,25.48
2022-11-09T16:32:19.161Z,42.70
2022-11-09T16:35:25.963Z,24.20
2022-11-09T16:38:11.081Z,19.55
2022-11-09T16:40:56.419Z,13.80
2022-11-09T16:43:44.033Z,18.02
2022-11-09T16:46:29.474Z,19.67
2022-11-09T16:49:15.146Z,23.98
2022-11-09T16:52:00.228Z,23.52
2022-11-09T16:54:45.596Z,19.50
2022-11-09T16:57:30.659Z,22.02
2022-11-09T17:00:16.792Z,25.40
2022-11-09T17:03:03.805Z,21.67
2022-11-09T17:05:49.334Z,25.73
2022-11-09T17:08:34.584Z,21.23
2022-11-09T17:11:20.498Z,30.02
2022-11-09T17:14:05.862Z,25.20
2022-11-09T17:16:51.240Z,15.32
2022-11-09T17:19:36.983Z,16.02
2022-11-09T17:22:22.615Z,15.48
2022-11-09T17:25:08.353Z,23.83
2022-11-09T17:27:53.982Z,15.27
2022-11-09T17:30:40.987Z,12.98
2022-11-09T17:33:26.613Z,16.63
2022-11-09T17:36:14.095Z,21.70
2022-11-09T17:39:01.470Z,28.63
2022-11-09T17:41:46.873Z,27.47
2022-11-09T17:44:35.564Z,25.08
2022-11-09T17:47:21.069Z,35.58
2022-11-09T17:50:07.264Z,35.38
2022-11-09T17:52:52.595Z,47.28
2022-11-09T17:55:38.488Z,28.50
2022-11-09T17:58:24.912Z,35.67
2022-11-09T18:01:12.835Z,35.08
2022-11-09T18:03:58.825Z,34.10
2022-11-09T18:06:45.316Z,37.10
2022-11-09T18:09:46.006Z,26.20
2022-11-09T18:12:31.682Z,45.30
2022-11-09T18:15:17.352Z,47.97
2022-11-09T18:18:02.607Z,38.95
2022-11-09T18:20:47.609Z,27.83
2022-11-09T18:23:34.101Z,23.17
2022-11-09T18:26:19.241Z,28.55
2022-11-09T18:29:04.797Z,27.65
2022-11-09T18:31:50.131Z,41.30
2022-11-09T18:34:35.391Z,28.00
2022-11-09T18:37:20.572Z,27.63
2022-11-09T18:40:07.156Z,28.48
2022-11-09T18:42:52.348Z,37.67
2022-11-09T18:45:40.446Z,28.42
2022-11-09T18:48:26.388Z,40.78
2022-11-09T18:51:12.204Z,39.83
2022-11-09T18:53:57.443Z,33.63
2022-11-09T18:56:43.023Z,31.52
2022-11-09T18:59:28.324Z,32.35
2022-11-09T19:02:14.141Z,32.05
2022-11-09T19:04:59.226Z,33.30
2022-11-09T19:07:44.882Z,29.33
2022-11-09T19:10:30.693Z,27.13
2022-11-09T19:13:16.134Z,40.13
2022-11-09T19:16:01.260Z,33.15
2022-11-09T19:18:47.274Z,28.33
2022-11-09T19:21:42.019Z,31.75
2022-11-09T19:24:32.218Z,23.63
2022-11-09T19:27:18.368Z,22.92
2022-11-09T19:30:09.364Z,23.83
2022-11-09T19:32:54.872Z,21.57
2022-11-09T19:35:41.521Z,22.13
2022-11-09T19:38:27.540Z,23.42
2022-11-09T19:41:12.820Z,24.33
2022-11-09T19:43:58.990Z,29.38
2022-11-09T19:46:45.694Z,27.10
2022-11-09T19:49:31.306Z,28.35
2022-11-09T19:52:16.635Z,24.27
2022-11-09T19:55:02.548Z,24.88
2022-11-09T19:57:50.932Z,22.13
2022-11-09T20:00:37.187Z,17.70
2022-11-09T20:03:23.686Z,29.25
2022-11-09T20:06:10.005Z,33.20
2022-11-09T20:08:59.725Z,31.55
2022-11-09T20:12:06.088Z,36.85
2022-11-09T20:14:53.309Z,31.23
2022-11-09T20:17:39.737Z,30.13
2022-11-09T20:20:25.436Z,27.27
2022-11-09T20:23:10.838Z,21.55
2022-11-09T20:26:06.951Z,19.15
2022-11-09T20:28:53.984Z,22.83
2022-11-09T20:31:41.599Z,17.50
2022-11-09T20:34:29.670Z,21.90
2022-11-09T20:37:17.783Z,17.88
2022-11-09T20:40:07.992Z,20.05
2022-11-09T20:42:54.330Z,19.87
2022-11-09T20:45:41.654Z,23.40
2022-11-09T20:48:51.968Z,20.38
2022-11-09T20:51:34.619Z,22.13
2022-11-09T20:54:21.777Z,25.95
2022-11-09T20:57:08.730Z,22.67
2022-11-09T20:59:55.614Z,25.77
2022-11-09T21:02:43.110Z,23.10
2022-11-09T21:05:29.870Z,20.27
2022-11-09T21:08:16.075Z,20.40
2022-11-09T21:11:04.337Z,24.10
2022-11-09T21:13:52.330Z,23.52
2022-11-09T21:16:40.057Z,22.08
2022-11-09T21:19:25.691Z,25.40
2022-11-09T21:22:12.691Z,23.67
2022-11-09T21:25:16.670Z,22.47
2022-11-09T21:28:21.195Z,20.10
2022-11-09T21:31:06.866Z,20.08
2022-11-09T21:33:53.417Z,20.25
2022-11-09T21:36:41.207Z,22.00
2022-11-09T21:39:33.130Z,32.13
2022-11-09T21:42:19.193Z,28.58
2022-11-09T21:45:05.856Z,24.10
2022-11-09T21:47:54.460Z,18.73
2022-11-09T21:50:40.918Z,19.58
2022-11-09T21:53:26.589Z,18.60
2022-11-09T21:56:13.764Z,17.25
2022-11-09T21:58:59.899Z,16.85
2022-11-09T22:01:45.950Z,18.58
2022-11-09T22:04:32.951Z,18.23
2022-11-09T22:07:19.038Z,16.10
2022-11-09T22:10:12.095Z,15.80
2022-11-09T22:13:16.057Z,17.15
2022-11-09T22:16:09.403Z,16.88
2022-11-09T22:19:13.921Z,14.45
2022-11-09T22:21:59.343Z,16.80
2022-11-09T22:24:45.181Z,14.52
2022-11-09T22:27:32.320Z,20.15
2022-11-09T22:30:17.914Z,16.88
2022-11-09T22:33:03.181Z,15.50
2022-11-09T22:35:56.614Z,16.40
2022-11-09T22:38:42.119Z,15.60
2022-11-09T22:41:27.891Z,17.27
2022-11-09T22:44:13.456Z,13.98
2022-11-09T22:46:59.105Z,15.55
2022-11-09T22:49:44.149Z,16.97
2022-11-09T22:52:29.673Z,15.70
2022-11-09T22:55:14.945Z,16.63
2022-11-09T22:58:00.406Z,17.77
2022-11-09T23:00:45.847Z,13.55
2022-11-09T23:03:31.582Z,15.60
2022-11-09T23:06:20.331Z,16.00
2022-11-09T23:09:05.933Z,20.35
2022-11-09T23:11:51.322Z,17.48
2022-11-09T23:14:55.423Z,22.67
2022-11-09T23:17:59.506Z,16.93
2022-11-09T23:20:44.937Z,16.55
2022-11-09T23:23:29.913Z,13.10
2022-11-09T23:26:15.593Z,14.63
2022-11-09T23:29:01.069Z,11.38
2022-11-09T23:31:46.711Z,14.83
2022-11-09T23:34:32.103Z,20.92
2022-11-09T23:37:17.797Z,15.70
2022-11-09T23:40:04.409Z,18.60
2022-11-09T23:42:49.813Z,16.23
2022-11-09T23:45:36.825Z,14.83
2022-11-09T23:48:22.463Z,16.13
2022-11-09T23:51:08.732Z,13.50
2022-11-09T23:53:54.375Z,14.35
2022-11-09T23:56:39.707Z,16.13
2022-11-09T23:59:25.191Z,15.00
